createdAt,value
2022-12-22T00:01:56.016Z,9.30
2022-12-22T00:04:41.233Z,9.20
2022-12-22T00:07:26.738Z,9.30
2022-12-22T00:10:12.167Z,9.30
2022-12-22T00:12:58.129Z,9.40
2022-12-22T00:15:43.796Z,9.50
2022-12-22T00:18:35.589Z,9.50
2022-12-22T00:21:20.838Z,9.40
2022-12-22T00:24:06.340Z,9.30
2022-12-22T00:26:53.293Z,9.30
2022-12-22T00:29:38.726Z,9.80
2022-12-22T00:32:24.301Z,9.50
2022-12-22T00:35:10.650Z,9.50
2022-12-22T00:37:56.683Z,9.50
2022-12-22T00:40:47.216Z,9.60
2022-12-22T00:43:33.056Z,9.70
2022-12-22T00:46:20.468Z,9.60
2022-12-22T00:49:06.481Z,9.70
2022-12-22T00:51:52.402Z,9.60
2022-12-22T00:54:38.842Z,9.60
2022-12-22T00:57:24.224Z,9.70
2022-12-22T01:00:11.002Z,9.60
2022-12-22T01:02:56.594Z,9.50
2022-12-22T01:05:41.946Z,9.50
2022-12-22T01:08:29.428Z,9.60
2022-12-22T01:11:14.859Z,9.60
2022-12-22T01:14:00.150Z,9.60
2022-12-22T01:16:45.671Z,9.70
2022-12-22T01:19:31.121Z,9.70
2022-12-22T01:22:16.637Z,9.70
2022-12-22T01:25:03.178Z,9.70
2022-12-22T01:27:48.512Z,9.70
2022-12-22T01:30:35.630Z,9.80
2022-12-22T01:33:20.839Z,9.70
2022-12-22T01:36:06.118Z,9.80
2022-12-22T01:38:51.286Z,9.80
2022-12-22T01:41:39.935Z,9.70
2022-12-22T01:44:35.844Z,9.60
2022-12-22T01:47:46.216Z,9.50
2022-12-22T01:50:33.272Z,9.40
2022-12-22T01:53:20.339Z,9.30
2022-12-22T01:56:06.245Z,9.30
2022-12-22T01:58:55.909Z,9.30
2022-12-22T02:01:41.458Z,9.30
2022-12-22T02:04:26.836Z,9.60
2022-12-22T02:07:18.337Z,9.30
2022-12-22T02:10:21.498Z,9.30
2022-12-22T02:13:17.453Z,9.20
2022-12-22T02:16:11.984Z,9.10
2022-12-22T02:19:17.571Z,9.00
2022-12-22T02:22:40.226Z,9.00
2022-12-22T02:25:32.722Z,8.90
2022-12-22T02:28:19.984Z,9.00
2022-12-22T02:31:07.085Z,9.00
2022-12-22T02:33:52.303Z,9.10
2022-12-22T02:36:57.654Z,9.20
2022-12-22T02:40:02.110Z,9.30
2022-12-22T02:42:57.691Z,9.40
2022-12-22T02:45:55.277Z,9.60
2022-12-22T02:49:00.741Z,9.40
2022-12-22T02:51:48.314Z,9.40
2022-12-22T02:54:36.003Z,9.60
2022-12-22T02:57:24.411Z,9.40
2022-12-22T03:00:09.875Z,9.40
2022-12-22T03:02:55.535Z,9.30
2022-12-22T03:05:41.035Z,9.30
2022-12-22T03:08:26.413Z,9.30
2022-12-22T03:11:11.803Z,9.30
2022-12-22T03:13:57.323Z,9.50
2022-12-22T03:16:42.956Z,9.40
2022-12-22T03:19:28.305Z,9.40
2022-12-22T03:22:13.640Z,9.30
2022-12-22T03:24:59.038Z,9.20
2022-12-22T03:27:25.623Z,9.20
2022-12-22T03:29:52.208Z,9.20
2022-12-22T03:32:18.801Z,9.10
2022-12-22T03:34:45.377Z,9.10
2022-12-22T03:37:11.979Z,9.10
2022-12-22T03:39:38.608Z,9.10
2022-12-22T03:42:23.862Z,9.30
2022-12-22T03:45:09.263Z,9.20
2022-12-22T03:47:35.859Z,9.30
2022-12-22T03:50:02.465Z,9.40
2022-12-22T03:52:29.070Z,9.40
2022-12-22T03:54:55.650Z,9.50
2022-12-22T03:57:22.289Z,9.60
2022-12-22T03:59:48.935Z,9.70
2022-12-22T04:02:15.636Z,9.70
2022-12-22T04:04:42.323Z,9.80
2022-12-22T04:07:08.955Z,9.80
2022-12-22T04:09:35.546Z,9.80
2022-12-22T04:12:20.888Z,9.80
2022-12-22T04:14:47.468Z,9.80
2022-12-22T04:17:14.045Z,9.90
2022-12-22T04:19:40.629Z,9.90
2022-12-22T04:22:07.406Z,10.00
2022-12-22T04:24:34.064Z,10.10
2022-12-22T04:27:00.666Z,10.10
2022-12-22T04:29:27.260Z,10.10
2022-12-22T04:31:53.902Z,10.20
2022-12-22T04:34:20.572Z,10.00
2022-12-22T04:36:47.141Z,10.00
2022-12-22T04:39:13.756Z,10.00
2022-12-22T04:41:40.341Z,10.00
2022-12-22T04:44:08.093Z,10.20
2022-12-22T04:46:34.749Z,9.90
2022-12-22T04:49:01.332Z,9.90
2022-12-22T04:51:28.807Z,9.90
2022-12-22T04:53:55.776Z,9.90
2022-12-22T04:56:22.426Z,9.80
2022-12-22T04:58:49.027Z,9.70
2022-12-22T05:01:18.433Z,9.80
2022-12-22T05:03:45.488Z,9.90
2022-12-22T05:06:12.477Z,9.80
2022-12-22T05:08:39.257Z,9.80
2022-12-22T05:11:06.581Z,9.80
2022-12-22T05:13:33.520Z,9.80
2022-12-22T05:16:08.272Z,10.00
2022-12-22T05:18:35.990Z,9.70
2022-12-22T05:21:05.897Z,9.80
2022-12-22T05:23:32.537Z,9.70
2022-12-22T05:25:59.158Z,9.90
2022-12-22T05:28:25.801Z,9.90
2022-12-22T05:30:53.373Z,9.80
2022-12-22T05:33:20.777Z,9.90
2022-12-22T05:35:47.517Z,9.90
2022-12-22T05:38:14.137Z,9.90
2022-12-22T05:40:40.768Z,9.90
2022-12-22T05:43:07.405Z,9.90
2022-12-22T05:45:34.028Z,9.90
2022-12-22T05:48:00.707Z,9.90
2022-12-22T05:50:27.612Z,9.80
2022-12-22T05:52:54.684Z,9.90
2022-12-22T05:55:21.289Z,9.70
2022-12-22T05:57:47.877Z,9.70
2022-12-22T06:00:16.313Z,9.60
2022-12-22T06:02:44.181Z,9.40
2022-12-22T06:05:13.067Z,9.40
2022-12-22T06:07:39.692Z,9.20
2022-12-22T06:10:11.893Z,9.20
2022-12-22T06:12:40.728Z,9.20
2022-12-22T06:15:08.732Z,9.10
2022-12-22T06:17:40.441Z,9.00
2022-12-22T06:20:11.414Z,9.10
2022-12-22T06:22:38.129Z,9.10
2022-12-22T06:25:05.204Z,9.10
2022-12-22T06:27:31.830Z,9.30
2022-12-22T06:29:58.455Z,9.30
2022-12-22T06:32:25.098Z,9.50
2022-12-22T06:34:52.319Z,9.60
2022-12-22T06:37:18.949Z,9.50
2022-12-22T06:39:45.549Z,9.70
2022-12-22T06:42:31.060Z,9.70
2022-12-22T06:44:57.630Z,9.90
2022-12-22T06:47:24.261Z,10.00
2022-12-22T06:49:51.339Z,10.10
2022-12-22T06:52:17.984Z,10.10
2022-12-22T06:54:44.606Z,10.00
2022-12-22T06:57:11.194Z,10.10
2022-12-22T06:59:37.768Z,10.00
2022-12-22T07:02:04.628Z,10.10
2022-12-22T07:04:31.650Z,10.20
2022-12-22T07:06:58.277Z,10.20
2022-12-22T07:09:24.862Z,10.20
2022-12-22T07:11:51.498Z,10.40
2022-12-22T07:14:18.079Z,10.50
2022-12-22T07:16:45.665Z,10.30
2022-12-22T07:19:12.598Z,10.30
2022-12-22T07:21:39.201Z,10.30
2022-12-22T07:24:06.305Z,10.10
2022-12-22T07:26:32.910Z,10.00
2022-12-22T07:28:59.557Z,9.90
2022-12-22T07:31:26.160Z,9.80
2022-12-22T07:33:52.743Z,9.80
2022-12-22T07:36:20.473Z,10.00
2022-12-22T07:38:49.677Z,10.00
2022-12-22T07:41:37.258Z,10.00
2022-12-22T07:44:04.816Z,10.00
2022-12-22T07:46:34.408Z,9.90
2022-12-22T07:49:19.636Z,9.80
2022-12-22T07:51:46.394Z,9.90
2022-12-22T07:54:14.528Z,10.00
2022-12-22T07:56:41.724Z,10.10
2022-12-22T07:59:08.648Z,10.00
2022-12-22T08:01:35.429Z,10.00
2022-12-22T08:04:02.265Z,9.90
2022-12-22T08:06:28.868Z,9.80
2022-12-22T08:08:55.541Z,9.80
2022-12-22T08:11:22.201Z,9.80
2022-12-22T08:13:49.828Z,9.80
2022-12-22T08:16:17.835Z,9.90
2022-12-22T08:18:44.552Z,9.90
2022-12-22T08:21:11.146Z,10.00
2022-12-22T08:23:37.941Z,9.90
2022-12-22T08:26:22.008Z,9.90
2022-12-22T08:29:12.760Z,9.90
2022-12-22T08:31:40.705Z,10.00
2022-12-22T08:34:12.511Z,10.00
2022-12-22T08:36:43.553Z,10.00
2022-12-22T08:39:10.820Z,10.00
2022-12-22T08:41:49.903Z,10.10
2022-12-22T08:44:27.911Z,10.10
2022-12-22T08:46:57.171Z,10.20
2022-12-22T08:49:23.963Z,10.10
2022-12-22T08:51:51.265Z,10.20
2022-12-22T08:54:18.319Z,10.20
2022-12-22T08:56:45.479Z,10.20
2022-12-22T08:59:13.326Z,10.20
2022-12-22T09:01:44.752Z,10.20
2022-12-22T09:04:15.784Z,10.20
2022-12-22T09:06:42.461Z,10.30
2022-12-22T09:09:11.152Z,10.40
2022-12-22T09:11:38.507Z,10.80
2022-12-22T09:14:06.862Z,11.10
2022-12-22T09:31:21.862Z,10.30
2022-12-22T09:33:49.196Z,10.10
2022-12-22T09:36:20.140Z,10.20
2022-12-22T09:48:54.692Z,10.20
2022-12-22T10:14:48.590Z,10.40
2022-12-22T10:19:48.472Z,10.40
2022-12-22T10:27:41.918Z,10.50
2022-12-22T10:30:26.347Z,10.50
2022-12-22T10:33:33.505Z,10.30
2022-12-22T10:36:00.397Z,10.20
2022-12-22T10:38:32.908Z,10.20
2022-12-22T10:41:20.214Z,10.20
2022-12-22T10:43:56.344Z,10.20
2022-12-22T10:46:38.621Z,10.20
2022-12-22T10:52:30.603Z,10.30
2022-12-22T10:55:20.480Z,10.40
2022-12-22T11:00:27.045Z,10.60
2022-12-22T11:02:58.586Z,10.60
2022-12-22T11:05:25.736Z,10.50
2022-12-22T11:07:52.601Z,10.60
2022-12-22T11:10:47.130Z,10.80
2022-12-22T11:13:25.540Z,11.10
2022-12-22T11:16:02.472Z,11.20
2022-12-22T11:18:56.331Z,11.20
2022-12-22T11:21:36.290Z,11.50
2022-12-22T11:24:15.250Z,11.70
2022-12-22T11:27:05.064Z,11.90
2022-12-22T11:30:08.963Z,12.00
2022-12-22T11:33:02.417Z,12.20
2022-12-22T11:35:56.631Z,12.10
2022-12-22T11:57:33.678Z,11.80
2022-12-22T12:03:04.782Z,12.00
2022-12-22T12:28:06.949Z,12.90
2022-12-22T12:41:27.188Z,12.10
2022-12-22T12:43:55.142Z,12.00
2022-12-22T12:46:53.166Z,11.90
2022-12-22T14:39:33.039Z,11.80
2022-12-22T14:42:13.762Z,11.80
2022-12-22T14:44:46.202Z,11.70
2022-12-22T14:47:15.046Z,11.60
2022-12-22T14:50:03.056Z,11.60
2022-12-22T14:52:37.539Z,11.50
2022-12-22T14:55:06.487Z,11.40
2022-12-22T14:57:39.389Z,11.40
2022-12-22T15:00:27.493Z,11.40
2022-12-22T15:03:00.551Z,11.40
2022-12-22T15:05:28.827Z,11.40
2022-12-22T15:08:07.464Z,11.40
2022-12-22T15:10:44.047Z,11.30
2022-12-22T15:13:18.483Z,11.60
2022-12-22T15:15:45.197Z,11.20
2022-12-22T15:18:15.083Z,11.10
2022-12-22T15:20:42.046Z,11.10
2022-12-22T15:23:14.346Z,11.10
2022-12-22T15:25:41.077Z,11.00
2022-12-22T15:28:07.745Z,11.00
2022-12-22T15:30:34.619Z,11.00
2022-12-22T15:33:01.338Z,10.90
2022-12-22T15:35:30.950Z,10.90
2022-12-22T15:37:57.943Z,10.80
2022-12-22T15:40:25.933Z,10.80
2022-12-22T15:42:53.044Z,10.70
2022-12-22T15:45:21.953Z,10.70
2022-12-22T15:47:51.916Z,10.70
2022-12-22T15:50:28.558Z,10.70
2022-12-22T15:52:57.914Z,10.60
2022-12-22T15:55:25.482Z,10.50
2022-12-22T15:57:56.445Z,11.00
2022-12-22T16:00:23.578Z,10.50
2022-12-22T16:02:50.852Z,10.40
2022-12-22T16:05:18.482Z,10.30
2022-12-22T16:07:45.267Z,10.20
2022-12-22T16:10:23.579Z,10.10
2022-12-22T16:12:55.492Z,10.10
2022-12-22T16:15:22.589Z,10.10
2022-12-22T16:17:51.644Z,10.00
2022-12-22T16:20:18.829Z,9.90
2022-12-22T16:22:45.434Z,9.80
2022-12-22T16:25:16.035Z,9.40
2022-12-22T16:27:42.973Z,9.80
2022-12-22T16:30:18.590Z,9.80
2022-12-22T16:32:45.932Z,9.70
2022-12-22T16:35:16.931Z,9.60
2022-12-22T16:37:43.768Z,9.60
2022-12-22T16:40:11.811Z,9.50
2022-12-22T16:45:28.600Z,9.50
2022-12-22T16:47:59.732Z,9.50
2022-12-22T16:50:32.931Z,9.50
2022-12-22T16:53:05.053Z,9.50
2022-12-22T16:55:33.393Z,9.60
2022-12-22T16:57:59.984Z,9.50
2022-12-22T17:00:34.404Z,9.60
2022-12-22T17:03:12.435Z,9.60
2022-12-22T17:05:54.643Z,9.70
2022-12-22T17:08:39.193Z,9.70
2022-12-22T17:11:11.387Z,9.70
2022-12-22T17:13:39.002Z,9.70
2022-12-22T17:16:05.844Z,9.60
2022-12-22T17:18:33.203Z,9.60
2022-12-22T17:21:00.753Z,9.50
2022-12-22T17:23:34.800Z,9.50
2022-12-22T17:26:05.609Z,9.60
2022-12-22T17:28:33.567Z,9.60
2022-12-22T17:31:00.321Z,9.70
2022-12-22T17:33:27.058Z,9.70
2022-12-22T17:35:54.329Z,9.80
2022-12-22T17:38:24.476Z,9.90
2022-12-22T17:40:51.310Z,9.80
2022-12-22T17:43:19.793Z,9.90
2022-12-22T17:45:47.473Z,9.90
2022-12-22T17:48:15.465Z,9.90
2022-12-22T17:50:43.999Z,9.90
2022-12-22T17:53:14.881Z,9.90
2022-12-22T17:58:29.157Z,9.80
2022-12-22T18:00:55.782Z,9.80
2022-12-22T18:03:22.512Z,9.80
2022-12-22T18:05:49.482Z,9.80
2022-12-22T18:08:19.597Z,9.80
2022-12-22T18:10:47.713Z,9.70
2022-12-22T18:13:19.236Z,9.70
2022-12-22T18:15:46.021Z,9.60
2022-12-22T18:18:14.494Z,9.60
2022-12-22T18:20:42.091Z,9.60
2022-12-22T18:23:23.745Z,9.60
2022-12-22T18:25:50.725Z,9.60
2022-12-22T18:28:17.747Z,9.60
2022-12-22T18:30:45.219Z,9.60
2022-12-22T18:33:12.087Z,9.70
2022-12-22T18:35:39.635Z,9.80
2022-12-22T18:38:06.775Z,9.70
2022-12-22T18:40:38.327Z,9.70
2022-12-22T18:43:13.103Z,9.80
2022-12-22T18:45:39.754Z,9.90
2022-12-22T18:48:06.467Z,9.90
2022-12-22T18:50:34.136Z,10.00
2022-12-22T18:53:06.150Z,10.00
2022-12-22T18:55:33.351Z,10.00
2022-12-22T18:58:00.637Z,9.90
2022-12-22T19:00:30.780Z,10.00
2022-12-22T19:02:59.446Z,10.00
2022-12-22T19:05:32.057Z,9.90
2022-12-22T19:07:59.321Z,9.90
2022-12-22T19:10:41.154Z,10.00
2022-12-22T19:13:18.676Z,10.00
2022-12-22T19:15:45.359Z,10.10
2022-12-22T19:18:22.624Z,10.10
2022-12-22T19:20:53.327Z,10.20
2022-12-22T19:23:22.679Z,10.20
2022-12-22T19:25:53.958Z,10.20
2022-12-22T19:28:26.412Z,10.20
2022-12-22T19:30:53.471Z,10.20
2022-12-22T19:33:30.338Z,10.10
2022-12-22T19:35:57.999Z,10.10
2022-12-22T19:38:26.217Z,10.10
2022-12-22T19:40:55.891Z,10.10
2022-12-22T19:43:22.551Z,10.00
2022-12-22T19:45:52.885Z,10.00
2022-12-22T19:48:25.815Z,10.00
2022-12-22T19:50:54.020Z,9.90
2022-12-22T19:53:21.652Z,9.90
2022-12-22T19:55:53.802Z,10.00
2022-12-22T19:58:27.418Z,10.00
2022-12-22T20:00:54.734Z,10.00
2022-12-22T20:03:24.401Z,10.00
2022-12-22T20:05:51.853Z,10.00
2022-12-22T20:08:18.679Z,10.00
2022-12-22T20:10:46.240Z,9.90
2022-12-22T20:13:18.585Z,9.90
2022-12-22T20:15:45.740Z,9.90
2022-12-22T20:18:23.811Z,9.90
2022-12-22T20:20:57.913Z,9.90
2022-12-22T20:23:25.756Z,9.80
2022-12-22T20:25:59.819Z,9.90
2022-12-22T20:28:32.644Z,9.80
2022-12-22T20:30:59.903Z,9.80
2022-12-22T20:33:27.001Z,9.80
2022-12-22T20:35:55.343Z,9.70
2022-12-22T20:38:31.204Z,9.70
2022-12-22T20:40:57.846Z,9.70
2022-12-22T20:43:26.521Z,9.70
2022-12-22T20:45:56.947Z,9.60
2022-12-22T20:48:33.567Z,9.60
2022-12-22T20:51:01.748Z,9.60
2022-12-22T20:53:28.611Z,9.50
2022-12-22T20:55:55.810Z,9.50
2022-12-22T20:58:24.279Z,9.50
2022-12-22T21:00:53.219Z,9.40
2022-12-22T21:03:19.956Z,9.50
2022-12-22T21:05:47.757Z,9.40
2022-12-22T21:08:25.798Z,9.50
2022-12-22T21:10:54.515Z,9.50
2022-12-22T21:13:21.816Z,9.50
2022-12-22T21:15:52.245Z,9.60
2022-12-22T21:18:23.733Z,9.60
2022-12-22T21:20:51.542Z,9.70
2022-12-22T21:23:18.192Z,9.70
2022-12-22T21:25:48.839Z,9.80
2022-12-22T21:28:31.166Z,10.00
2022-12-22T21:30:58.092Z,9.70
2022-12-22T21:33:24.772Z,9.80
2022-12-22T21:35:53.195Z,9.60
2022-12-22T21:38:22.326Z,9.60
2022-12-22T21:40:48.978Z,9.50
2022-12-22T21:43:16.755Z,9.50
2022-12-22T21:45:44.645Z,9.50
2022-12-22T21:48:13.288Z,9.50
2022-12-22T21:50:40.608Z,9.40
2022-12-22T21:53:07.655Z,9.40
2022-12-22T21:55:36.499Z,9.30
2022-12-22T21:58:04.564Z,9.20
2022-12-22T22:00:32.822Z,9.10
2022-12-22T22:03:01.067Z,9.10
2022-12-22T22:05:36.294Z,9.30
2022-12-22T22:08:05.534Z,9.00
2022-12-22T22:10:37.695Z,8.90
2022-12-22T22:13:05.060Z,8.90
2022-12-22T22:15:32.630Z,8.90
2022-12-22T22:18:06.196Z,8.90
2022-12-22T22:20:33.859Z,8.90
2022-12-22T22:23:00.574Z,8.90
2022-12-22T22:25:27.832Z,8.80
2022-12-22T22:27:59.365Z,8.80
2022-12-22T22:30:26.308Z,8.80
2022-12-22T22:32:53.927Z,8.80
2022-12-22T22:35:21.070Z,8.90
2022-12-22T22:37:50.645Z,8.90
2022-12-22T22:40:20.185Z,8.90
2022-12-22T22:42:47.158Z,8.90
2022-12-22T22:45:16.556Z,8.90
2022-12-22T22:47:43.141Z,8.90
2022-12-22T22:50:10.030Z,8.90
2022-12-22T22:52:37.044Z,8.80
2022-12-22T22:55:04.035Z,8.80
2022-12-22T22:57:30.727Z,8.90
2022-12-22T22:59:57.334Z,8.90
2022-12-22T23:02:24.216Z,8.80
2022-12-22T23:04:51.004Z,8.80
2022-12-22T23:07:17.715Z,8.80
2022-12-22T23:09:44.476Z,8.90
2022-12-22T23:12:11.189Z,8.90
2022-12-22T23:14:37.801Z,8.90
2022-12-22T23:17:04.581Z,8.90
2022-12-22T23:19:31.214Z,8.90
2022-12-22T23:21:57.996Z,8.90
2022-12-22T23:24:24.643Z,8.90
2022-12-22T23:26:51.566Z,8.90
2022-12-22T23:29:18.311Z,9.10
2022-12-22T23:31:44.973Z,9.00
2022-12-22T23:34:12.515Z,9.00
2022-12-22T23:36:39.374Z,9.00
2022-12-22T23:39:06.335Z,9.00
2022-12-22T23:41:33.095Z,9.00
2022-12-22T23:43:59.677Z,9.00
2022-12-22T23:46:26.387Z,9.10
2022-12-22T23:48:54.929Z,9.30
2022-12-22T23:51:23.799Z,9.10
2022-12-22T23:53:50.582Z,9.10
2022-12-22T23:56:17.249Z,9.10
2022-12-22T23:58:44.774Z,9.10
